UTA7775 USTR-USRO
Flight info
| Callsign | UTA7775 |
|---|---|
| Flight time | N/A |
| Altitude | 39000 |
| Route | SOLMU1Q SOLMU R717 INGIR INGIR1J |
| Aircraft | B738/M-SDE2E3FGHIRWXY/LB1 |
Departure
| Time | 2026-04-20 07:37 |
|---|---|
| Airport | Roshchino International Airport (USTR) |
Arrival
| Time | N/A |
|---|---|
| Airport | Noyabrsk Airport (USRO) |
| Time | Latitude | Longitude | Altitude | Speed | Heading |
|---|---|---|---|---|---|
| 2026-04-20 07:18 | 57.18998 | 65.33018 | 367 ft | 0 kts | 44° |
| 2026-04-20 07:34 | 57.19000 | 65.33019 | 367 ft | 1 kts | 27° |
| 2026-04-20 07:34 | 57.18999 | 65.33034 | 367 ft | 1 kts | 120° |
| 2026-04-20 07:34 | 57.18991 | 65.33033 | 369 ft | 2 kts | 189° |
| 2026-04-20 07:35 | 57.18984 | 65.32955 | 374 ft | 8 kts | 286° |
| 2026-04-20 07:35 | 57.19022 | 65.32852 | 369 ft | 11 kts | 312° |
| 2026-04-20 07:35 | 57.19080 | 65.32740 | 367 ft | 12 kts | 315° |
| 2026-04-20 07:35 | 57.19078 | 65.32601 | 368 ft | 12 kts | 231° |
| 2026-04-20 07:36 | 57.19038 | 65.32528 | 365 ft | 12 kts | 224° |
| 2026-04-20 07:36 | 57.18978 | 65.32427 | 368 ft | 8 kts | 200° |
| 2026-04-20 07:36 | 57.18941 | 65.32453 | 368 ft | 9 kts | 138° |
| 2026-04-20 07:36 | 57.18926 | 65.32478 | 370 ft | 0 kts | 135° |
| 2026-04-20 07:37 | 57.18671 | 65.32955 | 371 ft | 102 kts | 136° |
| 2026-04-20 07:37 | 57.17969 | 65.34264 | 389 ft | 183 kts | 133° |
| 2026-04-20 07:37 | 57.17081 | 65.36266 | 1095 ft | 216 kts | 118° |
| 2026-04-20 07:37 | 57.16486 | 65.38988 | 1623 ft | 236 kts | 100° |
| 2026-04-20 07:38 | 57.16624 | 65.41994 | 1823 ft | 250 kts | 67° |
| 2026-04-20 07:38 | 57.17440 | 65.44989 | 2483 ft | 266 kts | 63° |
| 2026-04-20 07:38 | 57.18245 | 65.48144 | 3361 ft | 275 kts | 66° |
| 2026-04-20 07:38 | 57.18974 | 65.51446 | 4295 ft | 281 kts | 69° |
| 2026-04-20 07:39 | 57.19636 | 65.54872 | 5221 ft | 287 kts | 71° |
| 2026-04-20 07:39 | 57.20250 | 65.58414 | 6126 ft | 293 kts | 72° |
| 2026-04-20 07:39 | 57.20829 | 65.62040 | 7022 ft | 297 kts | 74° |
| 2026-04-20 07:39 | 57.21380 | 65.65695 | 7878 ft | 301 kts | 75° |
| 2026-04-20 07:40 | 57.21925 | 65.69456 | 8756 ft | 306 kts | 75° |
| 2026-04-20 07:40 | 57.22467 | 65.73293 | 9658 ft | 311 kts | 76° |
| 2026-04-20 07:40 | 57.23008 | 65.77189 | 10426 ft | 319 kts | 76° |
| 2026-04-20 07:40 | 57.23574 | 65.81313 | 10691 ft | 345 kts | 76° |
| 2026-04-20 07:41 | 57.24178 | 65.85744 | 11053 ft | 364 kts | 76° |
| 2026-04-20 07:41 | 57.24799 | 65.90316 | 11785 ft | 370 kts | 76° |
| 2026-04-20 07:41 | 57.25424 | 65.94940 | 12671 ft | 372 kts | 76° |
| 2026-04-20 07:41 | 57.26049 | 65.99570 | 13546 ft | 374 kts | 76° |
| 2026-04-20 07:42 | 57.26680 | 66.04263 | 14300 ft | 379 kts | 76° |
| 2026-04-20 07:42 | 57.27319 | 66.09035 | 14968 ft | 384 kts | 76° |
| 2026-04-20 07:42 | 57.27963 | 66.13863 | 15642 ft | 390 kts | 75° |
| 2026-04-20 07:42 | 57.28611 | 66.18782 | 16267 ft | 397 kts | 76° |
| 2026-04-20 07:43 | 57.29264 | 66.23766 | 16970 ft | 401 kts | 76° |
| 2026-04-20 07:43 | 57.29922 | 66.28815 | 17683 ft | 405 kts | 75° |
| 2026-04-20 07:43 | 57.30584 | 66.33903 | 18353 ft | 410 kts | 75° |
| 2026-04-20 07:43 | 57.31254 | 66.39066 | 18914 ft | 415 kts | 75° |
| 2026-04-20 07:44 | 57.31929 | 66.44288 | 19476 ft | 420 kts | 75° |
| 2026-04-20 07:44 | 57.32609 | 66.49571 | 20043 ft | 424 kts | 76° |
| 2026-04-20 07:44 | 57.33295 | 66.54910 | 20599 ft | 429 kts | 76° |
| 2026-04-20 07:44 | 57.33985 | 66.60306 | 21150 ft | 433 kts | 76° |
| 2026-04-20 07:45 | 57.34682 | 66.65768 | 21679 ft | 438 kts | 76° |
| 2026-04-20 07:45 | 57.35373 | 66.71217 | 22215 ft | 443 kts | 75° |
| 2026-04-20 07:45 | 57.36081 | 66.76807 | 22673 ft | 449 kts | 75° |
| 2026-04-20 07:45 | 57.36794 | 66.82470 | 23154 ft | 454 kts | 75° |
| 2026-04-20 07:46 | 57.37512 | 66.88187 | 23656 ft | 458 kts | 76° |
| 2026-04-20 07:46 | 57.38237 | 66.93974 | 24081 ft | 462 kts | 76° |
| 2026-04-20 07:46 | 57.38969 | 66.99788 | 24500 ft | 465 kts | 74° |
| 2026-04-20 07:46 | 57.40083 | 67.05411 | 24892 ft | 466 kts | 60° |
| 2026-04-20 07:47 | 57.41799 | 67.10481 | 25315 ft | 464 kts | 48° |
| 2026-04-20 07:47 | 57.43984 | 67.14835 | 25718 ft | 459 kts | 36° |
| 2026-04-20 07:47 | 57.46440 | 67.18669 | 26134 ft | 461 kts | 34° |
| 2026-04-20 07:47 | 57.48933 | 67.22471 | 26533 ft | 464 kts | 34° |
| 2026-04-20 07:48 | 57.51428 | 67.26284 | 26973 ft | 467 kts | 33° |
| 2026-04-20 07:48 | 57.53931 | 67.30156 | 27494 ft | 467 kts | 34° |
| 2026-04-20 07:48 | 57.56413 | 67.34047 | 28106 ft | 466 kts | 34° |
| 2026-04-20 07:48 | 57.58887 | 67.37959 | 28633 ft | 466 kts | 34° |
| 2026-04-20 07:49 | 57.61357 | 67.41878 | 29118 ft | 467 kts | 34° |
| 2026-04-20 07:49 | 57.63826 | 67.45806 | 29653 ft | 466 kts | 33° |
| 2026-04-20 07:49 | 57.66260 | 67.49689 | 30062 ft | 468 kts | 33° |
| 2026-04-20 07:49 | 57.68757 | 67.53671 | 30016 ft | 472 kts | 34° |
| 2026-04-20 07:50 | 57.73688 | 67.61575 | 30019 ft | 463 kts | 34° |
| 2026-04-20 07:50 | 57.78587 | 67.69442 | 30050 ft | 464 kts | 33° |
| 2026-04-20 07:51 | 57.83488 | 67.77340 | 30036 ft | 464 kts | 33° |
| 2026-04-20 07:51 | 57.88380 | 67.85265 | 30045 ft | 464 kts | 33° |
| 2026-04-20 07:52 | 57.93236 | 67.93164 | 30038 ft | 464 kts | 33° |
| 2026-04-20 07:52 | 57.98088 | 68.01085 | 30089 ft | 464 kts | 33° |
| 2026-04-20 07:53 | 58.02966 | 68.09077 | 30067 ft | 465 kts | 32° |
| 2026-04-20 07:53 | 58.07839 | 68.17092 | 30059 ft | 464 kts | 32° |
| 2026-04-20 07:54 | 58.12698 | 68.25109 | 30056 ft | 463 kts | 32° |
| 2026-04-20 07:54 | 58.17592 | 68.32985 | 30061 ft | 460 kts | 30° |
| 2026-04-20 07:55 | 58.22582 | 68.40537 | 30061 ft | 459 kts | 30° |
| 2026-04-20 07:55 | 58.27570 | 68.48126 | 30068 ft | 459 kts | 30° |
| 2026-04-20 07:56 | 58.32540 | 68.55796 | 30071 ft | 460 kts | 30° |
| 2026-04-20 07:56 | 58.37504 | 68.63505 | 30065 ft | 461 kts | 30° |
| 2026-04-20 07:57 | 58.42460 | 68.71225 | 30085 ft | 459 kts | 30° |
| 2026-04-20 07:57 | 58.47400 | 68.78962 | 30079 ft | 458 kts | 30° |
| 2026-04-20 07:58 | 58.52310 | 68.86686 | 30091 ft | 456 kts | 30° |
| 2026-04-20 07:58 | 58.57179 | 68.94372 | 30131 ft | 456 kts | 29° |
| 2026-04-20 07:59 | 58.62080 | 69.02134 | 30109 ft | 457 kts | 29° |
| 2026-04-20 07:59 | 58.66971 | 69.09912 | 30089 ft | 457 kts | 29° |
| 2026-04-20 08:00 | 58.71860 | 69.17715 | 30121 ft | 456 kts | 29° |
| 2026-04-20 08:00 | 58.76732 | 69.25523 | 30118 ft | 456 kts | 29° |
| 2026-04-20 08:01 | 58.81600 | 69.33354 | 30136 ft | 457 kts | 29° |
| 2026-04-20 08:01 | 58.86485 | 69.41237 | 30126 ft | 458 kts | 29° |
| 2026-04-20 08:02 | 58.91356 | 69.49134 | 30140 ft | 457 kts | 29° |
| 2026-04-20 08:02 | 58.96218 | 69.57047 | 30133 ft | 456 kts | 29° |
| 2026-04-20 08:03 | 59.01067 | 69.64966 | 30143 ft | 455 kts | 29° |
| 2026-04-20 08:03 | 59.05904 | 69.72896 | 30147 ft | 455 kts | 29° |
| 2026-04-20 08:04 | 59.10735 | 69.80845 | 30147 ft | 454 kts | 29° |
| 2026-04-20 08:04 | 59.15528 | 69.88761 | 30145 ft | 455 kts | 30° |
| 2026-04-20 08:05 | 59.20350 | 69.96757 | 30222 ft | 455 kts | 29° |
| 2026-04-20 08:05 | 59.25179 | 70.04792 | 30157 ft | 457 kts | 29° |
| 2026-04-20 08:06 | 59.30020 | 70.12883 | 30154 ft | 457 kts | 30° |
| 2026-04-20 08:06 | 59.34847 | 70.20985 | 30155 ft | 457 kts | 30° |
| 2026-04-20 08:07 | 59.39658 | 70.29089 | 30170 ft | 457 kts | 29° |
| 2026-04-20 08:07 | 59.44477 | 70.37234 | 30155 ft | 455 kts | 29° |
| 2026-04-20 08:08 | 59.49249 | 70.45374 | 30159 ft | 453 kts | 30° |
| 2026-04-20 08:08 | 59.53977 | 70.53570 | 30178 ft | 452 kts | 30° |
| 2026-04-20 08:09 | 59.58699 | 70.61795 | 30173 ft | 453 kts | 30° |
| 2026-04-20 08:09 | 59.63418 | 70.70034 | 30203 ft | 454 kts | 30° |
| 2026-04-20 08:10 | 59.68160 | 70.78338 | 30190 ft | 456 kts | 30° |
| 2026-04-20 08:10 | 59.72901 | 70.86677 | 30208 ft | 456 kts | 30° |
| 2026-04-20 08:11 | 59.77632 | 70.95036 | 30208 ft | 455 kts | 30° |
| 2026-04-20 08:11 | 59.82329 | 71.03364 | 30226 ft | 455 kts | 30° |
| 2026-04-20 08:12 | 59.87047 | 71.11761 | 30220 ft | 455 kts | 30° |
| 2026-04-20 08:12 | 59.91758 | 71.20177 | 30253 ft | 455 kts | 30° |
| 2026-04-20 08:13 | 59.96458 | 71.28613 | 30236 ft | 454 kts | 30° |
| 2026-04-20 08:13 | 60.01139 | 71.37046 | 30219 ft | 452 kts | 30° |
| 2026-04-20 08:14 | 60.05803 | 71.45478 | 30239 ft | 453 kts | 29° |
| 2026-04-20 08:14 | 60.10480 | 71.53964 | 30243 ft | 454 kts | 30° |
| 2026-04-20 08:15 | 60.15134 | 71.62443 | 30242 ft | 455 kts | 30° |
| 2026-04-20 08:15 | 60.19850 | 71.71075 | 30300 ft | 456 kts | 29° |
| 2026-04-20 08:16 | 60.24545 | 71.79702 | 30245 ft | 457 kts | 30° |
| 2026-04-20 08:16 | 60.29200 | 71.88296 | 30242 ft | 456 kts | 30° |
| 2026-04-20 08:17 | 60.33870 | 71.96953 | 30240 ft | 455 kts | 30° |
| 2026-04-20 08:17 | 60.38525 | 72.05612 | 30251 ft | 454 kts | 30° |
| 2026-04-20 08:18 | 60.43168 | 72.14283 | 30247 ft | 454 kts | 30° |
| 2026-04-20 08:18 | 60.47827 | 72.23010 | 30287 ft | 458 kts | 30° |
| 2026-04-20 08:19 | 60.52521 | 72.31844 | 30263 ft | 461 kts | 30° |
| 2026-04-20 08:19 | 60.57226 | 72.40746 | 30259 ft | 462 kts | 30° |
| 2026-04-20 08:20 | 60.61916 | 72.49660 | 30250 ft | 461 kts | 30° |
| 2026-04-20 08:20 | 60.66600 | 72.58593 | 30257 ft | 460 kts | 30° |
| 2026-04-20 08:21 | 60.71263 | 72.67520 | 30260 ft | 460 kts | 30° |
| 2026-04-20 08:21 | 60.75918 | 72.76469 | 30261 ft | 460 kts | 31° |